sensor_id;sensor_type;location;lat;lon;timestamp;P1;P2;P0
30342;PMS5003;17145;49.902;8.680;2024-03-08T00:01:21;47;41;
30342;PMS5003;17145;49.902;8.680;2024-03-08T00:03:48;57;47;
30342;PMS5003;17145;49.902;8.680;2024-03-08T00:06:16;57;46;
30342;PMS5003;17145;49.902;8.680;2024-03-08T00:08:43;58;45;
30342;PMS5003;17145;49.902;8.680;2024-03-08T00:11:11;67;47;
30342;PMS5003;17145;49.902;8.680;2024-03-08T00:13:38;51;45;
30342;PMS5003;17145;49.902;8.680;2024-03-08T00:16:06;61;46;
30342;PMS5003;17145;49.902;8.680;2024-03-08T00:18:33;66;44;
30342;PMS5003;17145;49.902;8.680;2024-03-08T00:21:00;51;45;
30342;PMS5003;17145;49.902;8.680;2024-03-08T00:23:28;65;41;
30342;PMS5003;17145;49.902;8.680;2024-03-08T00:25:55;67;47;
30342;PMS5003;17145;49.902;8.680;2024-03-08T00:28:23;49;43;
30342;PMS5003;17145;49.902;8.680;2024-03-08T00:30:50;62;47;
30342;PMS5003;17145;49.902;8.680;2024-03-08T00:33:17;63;43;
30342;PMS5003;17145;49.902;8.680;2024-03-08T00:35:45;67;49;
30342;PMS5003;17145;49.902;8.680;2024-03-08T00:38:12;52;44;
30342;PMS5003;17145;49.902;8.680;2024-03-08T00:40:40;49;42;
30342;PMS5003;17145;49.902;8.680;2024-03-08T00:43:08;68;54;
30342;PMS5003;17145;49.902;8.680;2024-03-08T00:45:36;47;41;
30342;PMS5003;17145;49.902;8.680;2024-03-08T00:48:04;62;40;
30342;PMS5003;17145;49.902;8.680;2024-03-08T00:50:32;66;46;
30342;PMS5003;17145;49.902;8.680;2024-03-08T00:52:59;54;46;
30342;PMS5003;17145;49.902;8.680;2024-03-08T00:55:27;52;40;
30342;PMS5003;17145;49.902;8.680;2024-03-08T00:57:54;59;47;
30342;PMS5003;17145;49.902;8.680;2024-03-08T01:00:22;63;45;
30342;PMS5003;17145;49.902;8.680;2024-03-08T01:02:50;65;54;
30342;PMS5003;17145;49.902;8.680;2024-03-08T01:05:17;73;43;
30342;PMS5003;17145;49.902;8.680;2024-03-08T01:07:44;56;40;
30342;PMS5003;17145;49.902;8.680;2024-03-08T01:10:12;65;50;
30342;PMS5003;17145;49.902;8.680;2024-03-08T01:12:39;73;48;
30342;PMS5003;17145;49.902;8.680;2024-03-08T01:15:07;62;47;
30342;PMS5003;17145;49.902;8.680;2024-03-08T01:17:34;63;46;
30342;PMS5003;17145;49.902;8.680;2024-03-08T01:20:02;66;46;
30342;PMS5003;17145;49.902;8.680;2024-03-08T01:22:30;62;49;
30342;PMS5003;17145;49.902;8.680;2024-03-08T01:24:58;47;44;
30342;PMS5003;17145;49.902;8.680;2024-03-08T01:27:25;72;47;
30342;PMS5003;17145;49.902;8.680;2024-03-08T01:29:53;55;43;
30342;PMS5003;17145;49.902;8.680;2024-03-08T01:32:20;53;42;
30342;PMS5003;17145;49.902;8.680;2024-03-08T01:34:47;61;41;
30342;PMS5003;17145;49.902;8.680;2024-03-08T01:37:15;50;45;
30342;PMS5003;17145;49.902;8.680;2024-03-08T01:39:42;57;45;
30342;PMS5003;17145;49.902;8.680;2024-03-08T01:42:10;56;39;
30342;PMS5003;17145;49.902;8.680;2024-03-08T01:44:37;60;43;
30342;PMS5003;17145;49.902;8.680;2024-03-08T01:47:04;64;47;
30342;PMS5003;17145;49.902;8.680;2024-03-08T01:49:32;56;42;
30342;PMS5003;17145;49.902;8.680;2024-03-08T01:52:00;49;38;
30342;PMS5003;17145;49.902;8.680;2024-03-08T01:54:27;41;36;
30342;PMS5003;17145;49.902;8.680;2024-03-08T01:56:56;40;36;
30342;PMS5003;17145;49.902;8.680;2024-03-08T01:59:23;42;40;
30342;PMS5003;17145;49.902;8.680;2024-03-08T02:01:51;51;35;
30342;PMS5003;17145;49.902;8.680;2024-03-08T02:04:22;37;31;
30342;PMS5003;17145;49.902;8.680;2024-03-08T02:06:49;39;35;
30342;PMS5003;17145;49.902;8.680;2024-03-08T02:09:16;36;28;
30342;PMS5003;17145;49.902;8.680;2024-03-08T02:11:44;30;24;
30342;PMS5003;17145;49.902;8.680;2024-03-08T02:14:12;24;23;
30342;PMS5003;17145;49.902;8.680;2024-03-08T02:16:40;25;24;
30342;PMS5003;17145;49.902;8.680;2024-03-08T02:19:07;37;29;
30342;PMS5003;17145;49.902;8.680;2024-03-08T02:21:35;30;27;
30342;PMS5003;17145;49.902;8.680;2024-03-08T02:24:03;38;28;
30342;PMS5003;17145;49.902;8.680;2024-03-08T02:26:30;40;26;
30342;PMS5003;17145;49.902;8.680;2024-03-08T02:28:58;42;26;
30342;PMS5003;17145;49.902;8.680;2024-03-08T02:31:25;25;25;
30342;PMS5003;17145;49.902;8.680;2024-03-08T02:33:53;26;25;
30342;PMS5003;17145;49.902;8.680;2024-03-08T02:36:20;27;26;
30342;PMS5003;17145;49.902;8.680;2024-03-08T02:38:47;23;21;
30342;PMS5003;17145;49.902;8.680;2024-03-08T02:41:15;18;18;
30342;PMS5003;17145;49.902;8.680;2024-03-08T02:43:42;18;15;
30342;PMS5003;17145;49.902;8.680;2024-03-08T02:46:09;18;15;
30342;PMS5003;17145;49.902;8.680;2024-03-08T02:48:37;18;16;
30342;PMS5003;17145;49.902;8.680;2024-03-08T02:51:04;19;15;
30342;PMS5003;17145;49.902;8.680;2024-03-08T02:53:32;15;14;
30342;PMS5003;17145;49.902;8.680;2024-03-08T02:55:59;20;15;
30342;PMS5003;17145;49.902;8.680;2024-03-08T02:58:27;23;20;
30342;PMS5003;17145;49.902;8.680;2024-03-08T03:00:54;14;14;
30342;PMS5003;17145;49.902;8.680;2024-03-08T03:03:21;15;14;
30342;PMS5003;17145;49.902;8.680;2024-03-08T03:05:48;15;14;
30342;PMS5003;17145;49.902;8.680;2024-03-08T03:08:16;18;15;
30342;PMS5003;17145;49.902;8.680;2024-03-08T03:10:43;18;17;
30342;PMS5003;17145;49.902;8.680;2024-03-08T03:13:11;19;19;
30342;PMS5003;17145;49.902;8.680;2024-03-08T03:15:38;17;15;
30342;PMS5003;17145;49.902;8.680;2024-03-08T03:18:06;19;17;
30342;PMS5003;17145;49.902;8.680;2024-03-08T03:20:33;14;13;
30342;PMS5003;17145;49.902;8.680;2024-03-08T03:23:00;17;17;
30342;PMS5003;17145;49.902;8.680;2024-03-08T03:25:28;19;15;
30342;PMS5003;17145;49.902;8.680;2024-03-08T03:27:55;16;16;
30342;PMS5003;17145;49.902;8.680;2024-03-08T03:30:23;20;19;
30342;PMS5003;17145;49.902;8.680;2024-03-08T03:32:50;20;18;
30342;PMS5003;17145;49.902;8.680;2024-03-08T03:35:18;15;15;
30342;PMS5003;17145;49.902;8.680;2024-03-08T03:37:45;15;15;
30342;PMS5003;17145;49.902;8.680;2024-03-08T03:40:13;18;18;
30342;PMS5003;17145;49.902;8.680;2024-03-08T03:42:41;18;17;
30342;PMS5003;17145;49.902;8.680;2024-03-08T03:45:08;15;15;
30342;PMS5003;17145;49.902;8.680;2024-03-08T03:47:36;15;14;
30342;PMS5003;17145;49.902;8.680;2024-03-08T03:50:04;19;15;
30342;PMS5003;17145;49.902;8.680;2024-03-08T03:52:32;19;19;
30342;PMS5003;17145;49.902;8.680;2024-03-08T03:55:00;26;17;
30342;PMS5003;17145;49.902;8.680;2024-03-08T03:57:27;23;20;
30342;PMS5003;17145;49.902;8.680;2024-03-08T03:59:54;15;14;
30342;PMS5003;17145;49.902;8.680;2024-03-08T04:02:22;17;15;
30342;PMS5003;17145;49.902;8.680;2024-03-08T04:04:49;15;15;
30342;PMS5003;17145;49.902;8.680;2024-03-08T04:07:17;15;14;
30342;PMS5003;17145;49.902;8.680;2024-03-08T04:09:44;21;20;
30342;PMS5003;17145;49.902;8.680;2024-03-08T04:12:11;17;15;
30342;PMS5003;17145;49.902;8.680;2024-03-08T04:14:40;18;15;
30342;PMS5003;17145;49.902;8.680;2024-03-08T04:17:08;14;14;
30342;PMS5003;17145;49.902;8.680;2024-03-08T04:19:35;23;18;
30342;PMS5003;17145;49.902;8.680;2024-03-08T04:22:03;19;19;
30342;PMS5003;17145;49.902;8.680;2024-03-08T04:24:32;14;13;
30342;PMS5003;17145;49.902;8.680;2024-03-08T04:26:59;15;15;
30342;PMS5003;17145;49.902;8.680;2024-03-08T04:29:26;17;15;
30342;PMS5003;17145;49.902;8.680;2024-03-08T04:31:54;19;17;
30342;PMS5003;17145;49.902;8.680;2024-03-08T04:34:21;18;16;
30342;PMS5003;17145;49.902;8.680;2024-03-08T04:36:48;19;17;
30342;PMS5003;17145;49.902;8.680;2024-03-08T04:39:16;15;15;
30342;PMS5003;17145;49.902;8.680;2024-03-08T04:41:43;18;15;
30342;PMS5003;17145;49.902;8.680;2024-03-08T04:44:11;15;14;
30342;PMS5003;17145;49.902;8.680;2024-03-08T04:46:39;18;17;
30342;PMS5003;17145;49.902;8.680;2024-03-08T04:49:06;15;14;
30342;PMS5003;17145;49.902;8.680;2024-03-08T04:51:33;15;14;
30342;PMS5003;17145;49.902;8.680;2024-03-08T04:54:01;15;13;
30342;PMS5003;17145;49.902;8.680;2024-03-08T04:56:28;15;13;
30342;PMS5003;17145;49.902;8.680;2024-03-08T04:58:56;14;13;
30342;PMS5003;17145;49.902;8.680;2024-03-08T05:01:23;15;14;
30342;PMS5003;17145;49.902;8.680;2024-03-08T05:03:50;14;14;
30342;PMS5003;17145;49.902;8.680;2024-03-08T05:06:18;14;12;
30342;PMS5003;17145;49.902;8.680;2024-03-08T05:08:45;13;13;
30342;PMS5003;17145;49.902;8.680;2024-03-08T05:11:12;15;14;
30342;PMS5003;17145;49.902;8.680;2024-03-08T05:13:40;13;12;
30342;PMS5003;17145;49.902;8.680;2024-03-08T05:16:07;13;12;
30342;PMS5003;17145;49.902;8.680;2024-03-08T05:18:35;15;13;
30342;PMS5003;17145;49.902;8.680;2024-03-08T05:21:02;15;14;
30342;PMS5003;17145;49.902;8.680;2024-03-08T05:23:30;14;12;
30342;PMS5003;17145;49.902;8.680;2024-03-08T05:25:57;24;14;
30342;PMS5003;17145;49.902;8.680;2024-03-08T05:28:24;20;17;
30342;PMS5003;17145;49.902;8.680;2024-03-08T05:30:52;15;14;
30342;PMS5003;17145;49.902;8.680;2024-03-08T05:33:19;17;15;
30342;PMS5003;17145;49.902;8.680;2024-03-08T05:35:47;13;13;
30342;PMS5003;17145;49.902;8.680;2024-03-08T05:38:14;13;12;
30342;PMS5003;17145;49.902;8.680;2024-03-08T05:40:42;15;15;
30342;PMS5003;17145;49.902;8.680;2024-03-08T05:43:09;17;15;
30342;PMS5003;17145;49.902;8.680;2024-03-08T05:45:36;15;12;
30342;PMS5003;17145;49.902;8.680;2024-03-08T05:48:04;14;13;
30342;PMS5003;17145;49.902;8.680;2024-03-08T05:50:32;13;12;
30342;PMS5003;17145;49.902;8.680;2024-03-08T05:53:00;12;12;
30342;PMS5003;17145;49.902;8.680;2024-03-08T05:55:27;17;14;
30342;PMS5003;17145;49.902;8.680;2024-03-08T05:57:54;13;13;
30342;PMS5003;17145;49.902;8.680;2024-03-08T06:00:22;12;12;
30342;PMS5003;17145;49.902;8.680;2024-03-08T06:02:49;17;14;
30342;PMS5003;17145;49.902;8.680;2024-03-08T06:05:17;13;13;
30342;PMS5003;17145;49.902;8.680;2024-03-08T06:07:44;17;17;
30342;PMS5003;17145;49.902;8.680;2024-03-08T06:10:11;14;14;
30342;PMS5003;17145;49.902;8.680;2024-03-08T06:12:39;14;14;
30342;PMS5003;17145;49.902;8.680;2024-03-08T06:15:07;15;15;
30342;PMS5003;17145;49.902;8.680;2024-03-08T06:17:35;15;14;
30342;PMS5003;17145;49.902;8.680;2024-03-08T06:20:02;13;12;
30342;PMS5003;17145;49.902;8.680;2024-03-08T06:22:30;13;13;
30342;PMS5003;17145;49.902;8.680;2024-03-08T06:24:57;13;12;
30342;PMS5003;17145;49.902;8.680;2024-03-08T06:27:25;14;13;
30342;PMS5003;17145;49.902;8.680;2024-03-08T06:29:52;15;14;
30342;PMS5003;17145;49.902;8.680;2024-03-08T06:32:19;14;9;
30342;PMS5003;17145;49.902;8.680;2024-03-08T06:34:47;12;11;
30342;PMS5003;17145;49.902;8.680;2024-03-08T06:37:14;9;8;
30342;PMS5003;17145;49.902;8.680;2024-03-08T06:39:42;9;9;
30342;PMS5003;17145;49.902;8.680;2024-03-08T06:42:09;13;11;
30342;PMS5003;17145;49.902;8.680;2024-03-08T06:44:36;13;11;
30342;PMS5003;17145;49.902;8.680;2024-03-08T06:47:04;12;12;
30342;PMS5003;17145;49.902;8.680;2024-03-08T06:49:31;11;11;
30342;PMS5003;17145;49.902;8.680;2024-03-08T06:51:58;11;11;
30342;PMS5003;17145;49.902;8.680;2024-03-08T06:54:26;11;9;
30342;PMS5003;17145;49.902;8.680;2024-03-08T06:56:53;8;8;
30342;PMS5003;17145;49.902;8.680;2024-03-08T06:59:21;11;11;
30342;PMS5003;17145;49.902;8.680;2024-03-08T07:01:48;9;9;
30342;PMS5003;17145;49.902;8.680;2024-03-08T07:04:15;11;9;
30342;PMS5003;17145;49.902;8.680;2024-03-08T07:06:43;12;11;
30342;PMS5003;17145;49.902;8.680;2024-03-08T07:09:10;14;12;
30342;PMS5003;17145;49.902;8.680;2024-03-08T07:11:38;9;9;
30342;PMS5003;17145;49.902;8.680;2024-03-08T07:14:05;11;11;
30342;PMS5003;17145;49.902;8.680;2024-03-08T07:16:33;14;14;
30342;PMS5003;17145;49.902;8.680;2024-03-08T07:19:00;14;14;
30342;PMS5003;17145;49.902;8.680;2024-03-08T07:21:28;14;13;
30342;PMS5003;17145;49.902;8.680;2024-03-08T07:23:55;13;12;
30342;PMS5003;17145;49.902;8.680;2024-03-08T07:26:22;13;13;
30342;PMS5003;17145;49.902;8.680;2024-03-08T07:28:50;11;11;
30342;PMS5003;17145;49.902;8.680;2024-03-08T07:31:17;18;14;
30342;PMS5003;17145;49.902;8.680;2024-03-08T07:33:45;16;13;
30342;PMS5003;17145;49.902;8.680;2024-03-08T07:36:12;13;13;
30342;PMS5003;17145;49.902;8.680;2024-03-08T07:38:39;14;13;
30342;PMS5003;17145;49.902;8.680;2024-03-08T07:41:07;13;13;
30342;PMS5003;17145;49.902;8.680;2024-03-08T07:43:34;13;12;
30342;PMS5003;17145;49.902;8.680;2024-03-08T07:46:02;13;13;
30342;PMS5003;17145;49.902;8.680;2024-03-08T07:48:29;14;13;
30342;PMS5003;17145;49.902;8.680;2024-03-08T07:50:56;18;17;
30342;PMS5003;17145;49.902;8.680;2024-03-08T07:53:24;18;16;
30342;PMS5003;17145;49.902;8.680;2024-03-08T07:55:51;16;16;
30342;PMS5003;17145;49.902;8.680;2024-03-08T07:58:19;13;12;
30342;PMS5003;17145;49.902;8.680;2024-03-08T08:00:46;14;14;
30342;PMS5003;17145;49.902;8.680;2024-03-08T08:03:14;12;12;
30342;PMS5003;17145;49.902;8.680;2024-03-08T08:05:41;14;14;
30342;PMS5003;17145;49.902;8.680;2024-03-08T08:08:09;12;11;
30342;PMS5003;17145;49.902;8.680;2024-03-08T08:10:36;19;17;
30342;PMS5003;17145;49.902;8.680;2024-03-08T08:13:04;14;13;
30342;PMS5003;17145;49.902;8.680;2024-03-08T08:15:31;21;13;
30342;PMS5003;17145;49.902;8.680;2024-03-08T08:17:58;19;17;
30342;PMS5003;17145;49.902;8.680;2024-03-08T08:20:26;17;16;
30342;PMS5003;17145;49.902;8.680;2024-03-08T08:22:53;24;16;
30342;PMS5003;17145;49.902;8.680;2024-03-08T08:25:20;17;16;
30342;PMS5003;17145;49.902;8.680;2024-03-08T08:27:48;16;14;
30342;PMS5003;17145;49.902;8.680;2024-03-08T08:30:15;19;17;
30342;PMS5003;17145;49.902;8.680;2024-03-08T08:32:42;18;16;
30342;PMS5003;17145;49.902;8.680;2024-03-08T08:35:10;18;17;
30342;PMS5003;17145;49.902;8.680;2024-03-08T08:37:38;22;18;
30342;PMS5003;17145;49.902;8.680;2024-03-08T08:40:06;18;18;
30342;PMS5003;17145;49.902;8.680;2024-03-08T08:42:34;21;16;
30342;PMS5003;17145;49.902;8.680;2024-03-08T08:45:02;19;17;
30342;PMS5003;17145;49.902;8.680;2024-03-08T08:47:29;26;19;
30342;PMS5003;17145;49.902;8.680;2024-03-08T08:49:57;19;17;
30342;PMS5003;17145;49.902;8.680;2024-03-08T08:52:24;18;17;
30342;PMS5003;17145;49.902;8.680;2024-03-08T08:54:52;19;18;
30342;PMS5003;17145;49.902;8.680;2024-03-08T08:57:19;19;19;
30342;PMS5003;17145;49.902;8.680;2024-03-08T08:59:46;23;21;
30342;PMS5003;17145;49.902;8.680;2024-03-08T09:02:14;22;19;
30342;PMS5003;17145;49.902;8.680;2024-03-08T09:04:41;17;17;
30342;PMS5003;17145;49.902;8.680;2024-03-08T09:07:08;23;21;
30342;PMS5003;17145;49.902;8.680;2024-03-08T09:09:36;19;18;
30342;PMS5003;17145;49.902;8.680;2024-03-08T09:12:03;23;18;
30342;PMS5003;17145;49.902;8.680;2024-03-08T09:14:31;18;18;
30342;PMS5003;17145;49.902;8.680;2024-03-08T09:16:59;22;22;
30342;PMS5003;17145;49.902;8.680;2024-03-08T09:19:26;24;19;
30342;PMS5003;17145;49.902;8.680;2024-03-08T09:21:54;34;21;
30342;PMS5003;17145;49.902;8.680;2024-03-08T09:24:21;18;17;
30342;PMS5003;17145;49.902;8.680;2024-03-08T09:26:48;19;17;
30342;PMS5003;17145;49.902;8.680;2024-03-08T09:29:16;17;16;
30342;PMS5003;17145;49.902;8.680;2024-03-08T09:31:43;21;19;
30342;PMS5003;17145;49.902;8.680;2024-03-08T09:34:11;17;17;
30342;PMS5003;17145;49.902;8.680;2024-03-08T09:36:38;19;17;
30342;PMS5003;17145;49.902;8.680;2024-03-08T09:39:05;19;17;
30342;PMS5003;17145;49.902;8.680;2024-03-08T09:41:33;19;18;
30342;PMS5003;17145;49.902;8.680;2024-03-08T09:44:00;21;19;
30342;PMS5003;17145;49.902;8.680;2024-03-08T09:46:28;21;18;
30342;PMS5003;17145;49.902;8.680;2024-03-08T09:48:55;18;16;
30342;PMS5003;17145;49.902;8.680;2024-03-08T09:51:26;18;18;
30342;PMS5003;17145;49.902;8.680;2024-03-08T09:53:55;14;14;
30342;PMS5003;17145;49.902;8.680;2024-03-08T09:56:23;21;18;
30342;PMS5003;17145;49.902;8.680;2024-03-08T09:58:52;34;19;
30342;PMS5003;17145;49.902;8.680;2024-03-08T10:01:20;21;18;
30342;PMS5003;17145;49.902;8.680;2024-03-08T10:03:47;18;18;
30342;PMS5003;17145;49.902;8.680;2024-03-08T10:06:15;18;18;
30342;PMS5003;17145;49.902;8.680;2024-03-08T10:08:42;18;18;
30342;PMS5003;17145;49.902;8.680;2024-03-08T10:11:09;23;21;
30342;PMS5003;17145;49.902;8.680;2024-03-08T10:13:37;18;18;
30342;PMS5003;17145;49.902;8.680;2024-03-08T10:16:04;21;19;
30342;PMS5003;17145;49.902;8.680;2024-03-08T10:18:32;22;20;
30342;PMS5003;17145;49.902;8.680;2024-03-08T10:21:03;21;18;
30342;PMS5003;17145;49.902;8.680;2024-03-08T10:23:32;18;17;
30342;PMS5003;17145;49.902;8.680;2024-03-08T10:28:37;22;19;
30342;PMS5003;17145;49.902;8.680;2024-03-08T10:31:05;14;14;
30342;PMS5003;17145;49.902;8.680;2024-03-08T10:33:32;23;17;
30342;PMS5003;17145;49.902;8.680;2024-03-08T10:36:00;18;17;
30342;PMS5003;17145;49.902;8.680;2024-03-08T10:38:27;19;18;
30342;PMS5003;17145;49.902;8.680;2024-03-08T10:40:58;32;21;
30342;PMS5003;17145;49.902;8.680;2024-03-08T10:43:26;22;17;
30342;PMS5003;17145;49.902;8.680;2024-03-08T10:46:00;17;17;
30342;PMS5003;17145;49.902;8.680;2024-03-08T10:48:39;18;18;
30342;PMS5003;17145;49.902;8.680;2024-03-08T10:51:10;16;16;
30342;PMS5003;17145;49.902;8.680;2024-03-08T10:53:38;19;17;
30342;PMS5003;17145;49.902;8.680;2024-03-08T10:56:06;19;17;
30342;PMS5003;17145;49.902;8.680;2024-03-08T10:58:34;22;17;
30342;PMS5003;17145;49.902;8.680;2024-03-08T11:01:03;14;14;
30342;PMS5003;17145;49.902;8.680;2024-03-08T11:06:13;15;13;
30342;PMS5003;17145;49.902;8.680;2024-03-08T11:08:43;18;18;
30342;PMS5003;17145;49.902;8.680;2024-03-08T11:13:48;20;18;
30342;PMS5003;17145;49.902;8.680;2024-03-08T11:18:54;17;16;
30342;PMS5003;17145;49.902;8.680;2024-03-08T11:21:25;20;18;
30342;PMS5003;17145;49.902;8.680;2024-03-08T11:26:26;25;19;
30342;PMS5003;17145;49.902;8.680;2024-03-08T11:28:54;36;18;
30342;PMS5003;17145;49.902;8.680;2024-03-08T11:31:23;22;18;
30342;PMS5003;17145;49.902;8.680;2024-03-08T11:33:51;21;17;
30342;PMS5003;17145;49.902;8.680;2024-03-08T11:36:20;20;17;
30342;PMS5003;17145;49.902;8.680;2024-03-08T11:38:49;19;19;
30342;PMS5003;17145;49.902;8.680;2024-03-08T11:41:20;25;21;
30342;PMS5003;17145;49.902;8.680;2024-03-08T11:43:49;25;16;
30342;PMS5003;17145;49.902;8.680;2024-03-08T11:46:24;29;29;
30342;PMS5003;17145;49.902;8.680;2024-03-08T11:48:53;20;17;
30342;PMS5003;17145;49.902;8.680;2024-03-08T11:51:21;24;19;
30342;PMS5003;17145;49.902;8.680;2024-03-08T11:53:49;16;15;
30342;PMS5003;17145;49.902;8.680;2024-03-08T11:56:17;17;16;
30342;PMS5003;17145;49.902;8.680;2024-03-08T11:58:52;17;16;
30342;PMS5003;17145;49.902;8.680;2024-03-08T12:01:21;17;17;
30342;PMS5003;17145;49.902;8.680;2024-03-08T12:03:52;17;16;
30342;PMS5003;17145;49.902;8.680;2024-03-08T12:06:20;21;16;
30342;PMS5003;17145;49.902;8.680;2024-03-08T12:08:47;21;19;
30342;PMS5003;17145;49.902;8.680;2024-03-08T12:11:15;16;15;
30342;PMS5003;17145;49.902;8.680;2024-03-08T12:13:43;16;15;
30342;PMS5003;17145;49.902;8.680;2024-03-08T12:16:11;20;16;
30342;PMS5003;17145;49.902;8.680;2024-03-08T12:18:38;20;20;
30342;PMS5003;17145;49.902;8.680;2024-03-08T12:21:06;16;15;
30342;PMS5003;17145;49.902;8.680;2024-03-08T12:23:35;16;15;
30342;PMS5003;17145;49.902;8.680;2024-03-08T12:26:09;19;16;
30342;PMS5003;17145;49.902;8.680;2024-03-08T12:28:37;16;14;
30342;PMS5003;17145;49.902;8.680;2024-03-08T12:31:06;25;18;
30342;PMS5003;17145;49.902;8.680;2024-03-08T12:33:34;17;14;
30342;PMS5003;17145;49.902;8.680;2024-03-08T12:36:02;19;18;
30342;PMS5003;17145;49.902;8.680;2024-03-08T12:38:30;29;18;
30342;PMS5003;17145;49.902;8.680;2024-03-08T12:40:58;25;19;
30342;PMS5003;17145;49.902;8.680;2024-03-08T12:43:26;20;19;
30342;PMS5003;17145;49.902;8.680;2024-03-08T12:45:54;16;16;
30342;PMS5003;17145;49.902;8.680;2024-03-08T12:48:21;20;16;
30342;PMS5003;17145;49.902;8.680;2024-03-08T12:50:49;18;18;
30342;PMS5003;17145;49.902;8.680;2024-03-08T12:53:16;25;21;
30342;PMS5003;17145;49.902;8.680;2024-03-08T12:55:43;17;17;
30342;PMS5003;17145;49.902;8.680;2024-03-08T12:58:11;26;20;
30342;PMS5003;17145;49.902;8.680;2024-03-08T13:00:38;19;19;
30342;PMS5003;17145;49.902;8.680;2024-03-08T13:03:06;20;17;
30342;PMS5003;17145;49.902;8.680;2024-03-08T13:05:33;20;19;
30342;PMS5003;17145;49.902;8.680;2024-03-08T13:08:00;20;17;
30342;PMS5003;17145;49.902;8.680;2024-03-08T13:10:28;20;18;
30342;PMS5003;17145;49.902;8.680;2024-03-08T13:12:55;19;17;
30342;PMS5003;17145;49.902;8.680;2024-03-08T13:15:23;20;19;
30342;PMS5003;17145;49.902;8.680;2024-03-08T13:17:50;20;20;
30342;PMS5003;17145;49.902;8.680;2024-03-08T13:20:18;19;19;
30342;PMS5003;17145;49.902;8.680;2024-03-08T13:22:45;21;20;
30342;PMS5003;17145;49.902;8.680;2024-03-08T13:25:13;28;20;
30342;PMS5003;17145;49.902;8.680;2024-03-08T13:27:40;22;19;
30342;PMS5003;17145;49.902;8.680;2024-03-08T13:30:08;22;18;
30342;PMS5003;17145;49.902;8.680;2024-03-08T13:32:36;16;15;
30342;PMS5003;17145;49.902;8.680;2024-03-08T13:35:04;18;15;
30342;PMS5003;17145;49.902;8.680;2024-03-08T13:37:32;18;18;
30342;PMS5003;17145;49.902;8.680;2024-03-08T13:39:59;16;15;
30342;PMS5003;17145;49.902;8.680;2024-03-08T13:42:27;25;22;
30342;PMS5003;17145;49.902;8.680;2024-03-08T13:44:54;19;19;
30342;PMS5003;17145;49.902;8.680;2024-03-08T13:47:21;19;18;
30342;PMS5003;17145;49.902;8.680;2024-03-08T13:49:48;23;20;
30342;PMS5003;17145;49.902;8.680;2024-03-08T13:52:16;18;16;
30342;PMS5003;17145;49.902;8.680;2024-03-08T13:54:43;19;18;
30342;PMS5003;17145;49.902;8.680;2024-03-08T13:57:11;14;13;
30342;PMS5003;17145;49.902;8.680;2024-03-08T13:59:38;15;14;
30342;PMS5003;17145;49.902;8.680;2024-03-08T14:02:05;16;16;
30342;PMS5003;17145;49.902;8.680;2024-03-08T14:04:33;18;15;
30342;PMS5003;17145;49.902;8.680;2024-03-08T14:07:00;15;13;
30342;PMS5003;17145;49.902;8.680;2024-03-08T14:09:28;18;14;
30342;PMS5003;17145;49.902;8.680;2024-03-08T14:11:55;17;14;
30342;PMS5003;17145;49.902;8.680;2024-03-08T14:14:23;15;15;
30342;PMS5003;17145;49.902;8.680;2024-03-08T14:16:50;13;13;
30342;PMS5003;17145;49.902;8.680;2024-03-08T14:19:18;13;13;
30342;PMS5003;17145;49.902;8.680;2024-03-08T14:21:46;14;13;
30342;PMS5003;17145;49.902;8.680;2024-03-08T14:24:14;15;14;
30342;PMS5003;17145;49.902;8.680;2024-03-08T14:26:42;13;11;
30342;PMS5003;17145;49.902;8.680;2024-03-08T14:29:10;29;18;
30342;PMS5003;17145;49.902;8.680;2024-03-08T14:31:37;13;13;
30342;PMS5003;17145;49.902;8.680;2024-03-08T14:34:04;13;11;
30342;PMS5003;17145;49.902;8.680;2024-03-08T14:36:32;14;13;
30342;PMS5003;17145;49.902;8.680;2024-03-08T14:39:00;17;14;
30342;PMS5003;17145;49.902;8.680;2024-03-08T14:41:27;15;14;
30342;PMS5003;17145;49.902;8.680;2024-03-08T14:43:54;11;11;
30342;PMS5003;17145;49.902;8.680;2024-03-08T14:46:22;21;14;
30342;PMS5003;17145;49.902;8.680;2024-03-08T14:48:49;14;11;
30342;PMS5003;17145;49.902;8.680;2024-03-08T14:51:17;14;14;
30342;PMS5003;17145;49.902;8.680;2024-03-08T14:53:45;13;13;
30342;PMS5003;17145;49.902;8.680;2024-03-08T14:56:12;16;14;
30342;PMS5003;17145;49.902;8.680;2024-03-08T14:58:40;13;13;
30342;PMS5003;17145;49.902;8.680;2024-03-08T15:01:07;13;12;
30342;PMS5003;17145;49.902;8.680;2024-03-08T15:03:35;18;14;
30342;PMS5003;17145;49.902;8.680;2024-03-08T15:06:03;14;12;
30342;PMS5003;17145;49.902;8.680;2024-03-08T15:08:31;17;14;
30342;PMS5003;17145;49.902;8.680;2024-03-08T15:10:58;12;12;
30342;PMS5003;17145;49.902;8.680;2024-03-08T15:13:26;14;13;
30342;PMS5003;17145;49.902;8.680;2024-03-08T15:15:53;14;14;
30342;PMS5003;17145;49.902;8.680;2024-03-08T15:18:21;12;12;
30342;PMS5003;17145;49.902;8.680;2024-03-08T15:20:50;14;13;
30342;PMS5003;17145;49.902;8.680;2024-03-08T15:23:17;14;14;
30342;PMS5003;17145;49.902;8.680;2024-03-08T15:25:45;12;10;
30342;PMS5003;17145;49.902;8.680;2024-03-08T15:28:12;32;16;
30342;PMS5003;17145;49.902;8.680;2024-03-08T15:30:40;16;16;
30342;PMS5003;17145;49.902;8.680;2024-03-08T15:33:07;18;18;
30342;PMS5003;17145;49.902;8.680;2024-03-08T15:35:35;17;16;
30342;PMS5003;17145;49.902;8.680;2024-03-08T15:38:02;16;16;
30342;PMS5003;17145;49.902;8.680;2024-03-08T15:40:30;13;13;
30342;PMS5003;17145;49.902;8.680;2024-03-08T15:42:58;13;12;
30342;PMS5003;17145;49.902;8.680;2024-03-08T15:45:25;18;16;
30342;PMS5003;17145;49.902;8.680;2024-03-08T15:47:53;14;14;
30342;PMS5003;17145;49.902;8.680;2024-03-08T15:50:20;21;14;
30342;PMS5003;17145;49.902;8.680;2024-03-08T15:52:48;16;14;
30342;PMS5003;17145;49.902;8.680;2024-03-08T15:55:16;16;14;
30342;PMS5003;17145;49.902;8.680;2024-03-08T15:57:44;16;14;
30342;PMS5003;17145;49.902;8.680;2024-03-08T16:00:12;18;16;
30342;PMS5003;17145;49.902;8.680;2024-03-08T16:02:41;15;15;
30342;PMS5003;17145;49.902;8.680;2024-03-08T16:05:08;14;13;
30342;PMS5003;17145;49.902;8.680;2024-03-08T16:07:36;19;14;
30342;PMS5003;17145;49.902;8.680;2024-03-08T16:10:03;21;20;
30342;PMS5003;17145;49.902;8.680;2024-03-08T16:12:34;18;18;
30342;PMS5003;17145;49.902;8.680;2024-03-08T16:15:02;23;17;
30342;PMS5003;17145;49.902;8.680;2024-03-08T16:17:29;31;16;
30342;PMS5003;17145;49.902;8.680;2024-03-08T16:19:57;16;14;
30342;PMS5003;17145;49.902;8.680;2024-03-08T16:22:24;19;17;
30342;PMS5003;17145;49.902;8.680;2024-03-08T16:24:52;20;17;
30342;PMS5003;17145;49.902;8.680;2024-03-08T16:27:19;32;32;
30342;PMS5003;17145;49.902;8.680;2024-03-08T16:29:46;44;44;
30342;PMS5003;17145;49.902;8.680;2024-03-08T16:32:14;35;31;
30342;PMS5003;17145;49.902;8.680;2024-03-08T16:34:41;35;35;